sensor_id;sensor_type;location;lat;lon;timestamp;P1;durP1;ratioP1;P2;durP2;ratioP2
42066;SDS011;27734;47.028;28.820;2023-09-12T00:00:53;17.70;;;6.60;;
42066;SDS011;27734;47.028;28.820;2023-09-12T00:03:33;20.73;;;7.10;;
42066;SDS011;27734;47.028;28.820;2023-09-12T00:06:02;18.53;;;6.73;;
42066;SDS011;27734;47.028;28.820;2023-09-12T00:08:31;21.77;;;7.17;;
42066;SDS011;27734;47.028;28.820;2023-09-12T00:11:01;18.07;;;7.00;;
42066;SDS011;27734;47.028;28.820;2023-09-12T00:13:30;20.03;;;7.03;;
42066;SDS011;27734;47.028;28.820;2023-09-12T00:15:59;20.40;;;6.77;;
42066;SDS011;27734;47.028;28.820;2023-09-12T00:18:32;20.23;;;6.90;;
42066;SDS011;27734;47.028;28.820;2023-09-12T00:21:01;20.53;;;6.47;;
42066;SDS011;27734;47.028;28.820;2023-09-12T00:23:30;20.43;;;7.53;;
42066;SDS011;27734;47.028;28.820;2023-09-12T00:25:59;20.23;;;6.80;;
42066;SDS011;27734;47.028;28.820;2023-09-12T00:28:30;15.35;;;6.00;;
42066;SDS011;27734;47.028;28.820;2023-09-12T00:31:00;21.50;;;6.87;;
42066;SDS011;27734;47.028;28.820;2023-09-12T00:33:29;15.40;;;5.80;;
42066;SDS011;27734;47.028;28.820;2023-09-12T00:35:58;15.67;;;5.57;;
42066;SDS011;27734;47.028;28.820;2023-09-12T00:38:26;21.93;;;6.10;;
42066;SDS011;27734;47.028;28.820;2023-09-12T00:40:56;17.83;;;5.87;;
42066;SDS011;27734;47.028;28.820;2023-09-12T00:43:25;17.17;;;5.90;;
42066;SDS011;27734;47.028;28.820;2023-09-12T00:45:54;23.47;;;6.20;;
42066;SDS011;27734;47.028;28.820;2023-09-12T00:48:22;15.13;;;6.03;;
42066;SDS011;27734;47.028;28.820;2023-09-12T00:50:52;16.20;;;5.77;;
42066;SDS011;27734;47.028;28.820;2023-09-12T00:53:22;17.03;;;6.47;;
42066;SDS011;27734;47.028;28.820;2023-09-12T00:55:51;14.80;;;5.73;;
42066;SDS011;27734;47.028;28.820;2023-09-12T00:58:24;16.47;;;6.70;;
42066;SDS011;27734;47.028;28.820;2023-09-12T01:00:54;17.60;;;6.13;;
42066;SDS011;27734;47.028;28.820;2023-09-12T01:03:24;17.03;;;6.33;;
42066;SDS011;27734;47.028;28.820;2023-09-12T01:05:55;22.93;;;6.93;;
42066;SDS011;27734;47.028;28.820;2023-09-12T01:08:26;16.20;;;6.43;;
42066;SDS011;27734;47.028;28.820;2023-09-12T01:10:56;16.23;;;6.43;;
42066;SDS011;27734;47.028;28.820;2023-09-12T01:13:25;19.63;;;6.77;;
42066;SDS011;27734;47.028;28.820;2023-09-12T01:15:55;16.40;;;6.90;;
42066;SDS011;27734;47.028;28.820;2023-09-12T01:18:24;19.90;;;7.10;;
42066;SDS011;27734;47.028;28.820;2023-09-12T01:20:58;17.87;;;6.83;;
42066;SDS011;27734;47.028;28.820;2023-09-12T01:23:47;16.37;;;6.00;;
42066;SDS011;27734;47.028;28.820;2023-09-12T01:26:33;17.55;;;7.08;;
42066;SDS011;27734;47.028;28.820;2023-09-12T01:29:16;16.97;;;6.17;;
42066;SDS011;27734;47.028;28.820;2023-09-12T01:31:48;17.90;;;7.00;;
42066;SDS011;27734;47.028;28.820;2023-09-12T01:34:18;20.33;;;6.93;;
42066;SDS011;27734;47.028;28.820;2023-09-12T01:36:47;19.13;;;6.57;;
42066;SDS011;27734;47.028;28.820;2023-09-12T01:39:18;17.97;;;6.90;;
42066;SDS011;27734;47.028;28.820;2023-09-12T01:41:47;15.57;;;6.57;;
42066;SDS011;27734;47.028;28.820;2023-09-12T01:44:18;17.20;;;6.40;;
42066;SDS011;27734;47.028;28.820;2023-09-12T01:46:49;14.73;;;6.47;;
42066;SDS011;27734;47.028;28.820;2023-09-12T01:49:21;19.90;;;6.57;;
42066;SDS011;27734;47.028;28.820;2023-09-12T01:51:52;16.77;;;6.17;;
42066;SDS011;27734;47.028;28.820;2023-09-12T01:54:22;15.03;;;6.30;;
42066;SDS011;27734;47.028;28.820;2023-09-12T01:56:51;15.90;;;6.07;;
42066;SDS011;27734;47.028;28.820;2023-09-12T01:59:22;18.07;;;6.40;;
42066;SDS011;27734;47.028;28.820;2023-09-12T02:01:51;17.57;;;6.70;;
42066;SDS011;27734;47.028;28.820;2023-09-12T02:04:20;16.27;;;6.40;;
42066;SDS011;27734;47.028;28.820;2023-09-12T02:06:49;15.90;;;6.40;;
42066;SDS011;27734;47.028;28.820;2023-09-12T02:09:20;22.03;;;6.67;;
42066;SDS011;27734;47.028;28.820;2023-09-12T02:11:48;14.93;;;6.10;;
42066;SDS011;27734;47.028;28.820;2023-09-12T02:14:18;19.73;;;6.00;;
42066;SDS011;27734;47.028;28.820;2023-09-12T02:16:46;18.40;;;6.60;;
42066;SDS011;27734;47.028;28.820;2023-09-12T02:19:15;16.63;;;5.93;;
42066;SDS011;27734;47.028;28.820;2023-09-12T02:21:44;15.00;;;5.90;;
42066;SDS011;27734;47.028;28.820;2023-09-12T02:24:12;19.73;;;6.20;;
42066;SDS011;27734;47.028;28.820;2023-09-12T02:26:43;14.50;;;6.07;;
42066;SDS011;27734;47.028;28.820;2023-09-12T02:29:11;18.57;;;6.20;;
42066;SDS011;27734;47.028;28.820;2023-09-12T02:31:40;14.57;;;6.27;;
42066;SDS011;27734;47.028;28.820;2023-09-12T02:34:09;16.97;;;6.77;;
42066;SDS011;27734;47.028;28.820;2023-09-12T02:36:37;16.50;;;6.50;;
42066;SDS011;27734;47.028;28.820;2023-09-12T02:39:06;18.87;;;5.47;;
42066;SDS011;27734;47.028;28.820;2023-09-12T02:41:35;14.67;;;6.00;;
42066;SDS011;27734;47.028;28.820;2023-09-12T02:44:04;16.63;;;6.20;;
42066;SDS011;27734;47.028;28.820;2023-09-12T02:46:33;15.13;;;6.23;;
42066;SDS011;27734;47.028;28.820;2023-09-12T02:49:02;13.47;;;6.00;;
42066;SDS011;27734;47.028;28.820;2023-09-12T02:51:30;16.33;;;6.30;;
42066;SDS011;27734;47.028;28.820;2023-09-12T02:53:59;18.87;;;5.93;;
42066;SDS011;27734;47.028;28.820;2023-09-12T02:56:28;16.23;;;5.87;;
42066;SDS011;27734;47.028;28.820;2023-09-12T02:58:57;16.00;;;6.30;;
42066;SDS011;27734;47.028;28.820;2023-09-12T03:01:26;14.70;;;6.13;;
42066;SDS011;27734;47.028;28.820;2023-09-12T03:03:55;16.60;;;6.27;;
42066;SDS011;27734;47.028;28.820;2023-09-12T03:06:25;17.67;;;6.20;;
42066;SDS011;27734;47.028;28.820;2023-09-12T03:08:55;15.97;;;6.00;;
42066;SDS011;27734;47.028;28.820;2023-09-12T03:11:26;13.40;;;5.90;;
42066;SDS011;27734;47.028;28.820;2023-09-12T03:13:55;15.63;;;5.83;;
42066;SDS011;27734;47.028;28.820;2023-09-12T03:16:23;17.67;;;6.80;;
42066;SDS011;27734;47.028;28.820;2023-09-12T03:18:52;14.47;;;5.83;;
42066;SDS011;27734;47.028;28.820;2023-09-12T03:21:22;14.80;;;5.70;;
42066;SDS011;27734;47.028;28.820;2023-09-12T03:23:51;18.00;;;6.00;;
42066;SDS011;27734;47.028;28.820;2023-09-12T03:26:20;13.13;;;5.83;;
42066;SDS011;27734;47.028;28.820;2023-09-12T03:28:49;17.47;;;6.57;;
42066;SDS011;27734;47.028;28.820;2023-09-12T03:31:18;18.87;;;6.50;;
42066;SDS011;27734;47.028;28.820;2023-09-12T03:33:47;15.47;;;6.57;;
42066;SDS011;27734;47.028;28.820;2023-09-12T03:36:18;16.83;;;6.17;;
42066;SDS011;27734;47.028;28.820;2023-09-12T03:38:46;18.07;;;6.17;;
42066;SDS011;27734;47.028;28.820;2023-09-12T03:41:15;15.73;;;6.20;;
42066;SDS011;27734;47.028;28.820;2023-09-12T03:43:44;16.50;;;7.00;;
42066;SDS011;27734;47.028;28.820;2023-09-12T03:46:13;20.30;;;6.67;;
42066;SDS011;27734;47.028;28.820;2023-09-12T03:48:42;18.10;;;6.37;;
42066;SDS011;27734;47.028;28.820;2023-09-12T03:51:10;20.93;;;6.27;;
42066;SDS011;27734;47.028;28.820;2023-09-12T03:53:39;17.10;;;6.70;;
42066;SDS011;27734;47.028;28.820;2023-09-12T03:56:08;17.60;;;6.23;;
42066;SDS011;27734;47.028;28.820;2023-09-12T03:58:39;17.90;;;6.43;;
42066;SDS011;27734;47.028;28.820;2023-09-12T04:01:08;21.67;;;6.50;;
42066;SDS011;27734;47.028;28.820;2023-09-12T04:03:37;18.60;;;6.47;;
42066;SDS011;27734;47.028;28.820;2023-09-12T04:06:05;15.47;;;6.63;;
42066;SDS011;27734;47.028;28.820;2023-09-12T04:08:34;19.77;;;6.50;;
42066;SDS011;27734;47.028;28.820;2023-09-12T04:11:03;18.93;;;6.17;;
42066;SDS011;27734;47.028;28.820;2023-09-12T04:13:31;20.10;;;6.50;;
42066;SDS011;27734;47.028;28.820;2023-09-12T04:16:00;21.60;;;7.00;;
42066;SDS011;27734;47.028;28.820;2023-09-12T04:18:29;19.30;;;6.70;;
42066;SDS011;27734;47.028;28.820;2023-09-12T04:21:01;16.17;;;6.63;;
42066;SDS011;27734;47.028;28.820;2023-09-12T04:23:30;16.87;;;6.60;;
42066;SDS011;27734;47.028;28.820;2023-09-12T04:25:58;16.70;;;6.37;;
42066;SDS011;27734;47.028;28.820;2023-09-12T04:28:31;21.57;;;6.40;;
42066;SDS011;27734;47.028;28.820;2023-09-12T04:31:01;20.93;;;6.97;;
42066;SDS011;27734;47.028;28.820;2023-09-12T04:33:31;17.60;;;6.40;;
42066;SDS011;27734;47.028;28.820;2023-09-12T04:36:00;18.17;;;6.83;;
42066;SDS011;27734;47.028;28.820;2023-09-12T04:38:30;19.13;;;7.13;;
42066;SDS011;27734;47.028;28.820;2023-09-12T04:41:00;19.73;;;7.37;;
42066;SDS011;27734;47.028;28.820;2023-09-12T04:43:32;16.13;;;6.73;;
42066;SDS011;27734;47.028;28.820;2023-09-12T04:46:00;20.17;;;7.27;;
42066;SDS011;27734;47.028;28.820;2023-09-12T04:48:30;21.67;;;7.07;;
42066;SDS011;27734;47.028;28.820;2023-09-12T04:54:41;22.50;;;7.70;;
42066;SDS011;27734;47.028;28.820;2023-09-12T04:57:10;25.00;;;7.80;;
42066;SDS011;27734;47.028;28.820;2023-09-12T04:59:39;27.17;;;8.57;;
42066;SDS011;27734;47.028;28.820;2023-09-12T05:02:12;20.40;;;7.90;;
42066;SDS011;27734;47.028;28.820;2023-09-12T05:07:10;24.40;;;7.20;;
42066;SDS011;27734;47.028;28.820;2023-09-12T05:09:38;27.07;;;9.03;;
42066;SDS011;27734;47.028;28.820;2023-09-12T05:12:07;24.97;;;9.07;;
42066;SDS011;27734;47.028;28.820;2023-09-12T05:14:37;25.30;;;8.70;;
42066;SDS011;27734;47.028;28.820;2023-09-12T05:17:06;24.07;;;8.50;;
42066;SDS011;27734;47.028;28.820;2023-09-12T05:19:34;23.77;;;8.93;;
42066;SDS011;27734;47.028;28.820;2023-09-12T05:22:03;24.23;;;9.03;;
42066;SDS011;27734;47.028;28.820;2023-09-12T05:24:33;26.05;;;8.85;;
42066;SDS011;27734;47.028;28.820;2023-09-12T05:27:04;25.63;;;9.43;;
42066;SDS011;27734;47.028;28.820;2023-09-12T05:29:36;28.43;;;9.53;;
42066;SDS011;27734;47.028;28.820;2023-09-12T05:32:06;30.10;;;9.30;;
42066;SDS011;27734;47.028;28.820;2023-09-12T05:34:40;24.73;;;9.10;;
42066;SDS011;27734;47.028;28.820;2023-09-12T05:37:11;28.27;;;9.87;;
42066;SDS011;27734;47.028;28.820;2023-09-12T05:39:42;27.77;;;9.97;;
42066;SDS011;27734;47.028;28.820;2023-09-12T05:42:10;27.67;;;9.93;;
42066;SDS011;27734;47.028;28.820;2023-09-12T05:44:41;31.63;;;10.00;;
42066;SDS011;27734;47.028;28.820;2023-09-12T05:47:11;29.27;;;10.10;;
42066;SDS011;27734;47.028;28.820;2023-09-12T05:49:58;27.60;;;9.40;;
42066;SDS011;27734;47.028;28.820;2023-09-12T05:52:36;34.70;;;10.63;;
42066;SDS011;27734;47.028;28.820;2023-09-12T05:55:07;28.57;;;10.17;;
42066;SDS011;27734;47.028;28.820;2023-09-12T05:57:48;33.47;;;10.37;;
42066;SDS011;27734;47.028;28.820;2023-09-12T06:00:47;26.97;;;9.60;;
42066;SDS011;27734;47.028;28.820;2023-09-12T06:03:33;36.50;;;10.43;;
42066;SDS011;27734;47.028;28.820;2023-09-12T06:06:08;28.00;;;10.13;;
42066;SDS011;27734;47.028;28.820;2023-09-12T06:08:39;27.63;;;10.83;;
42066;SDS011;27734;47.028;28.820;2023-09-12T06:11:08;26.27;;;10.33;;
42066;SDS011;27734;47.028;28.820;2023-09-12T06:13:40;31.17;;;9.97;;
42066;SDS011;27734;47.028;28.820;2023-09-12T06:16:35;26.10;;;9.93;;
42066;SDS011;27734;47.028;28.820;2023-09-12T06:19:06;30.47;;;10.23;;
42066;SDS011;27734;47.028;28.820;2023-09-12T06:21:37;29.20;;;9.93;;
42066;SDS011;27734;47.028;28.820;2023-09-12T06:24:10;28.97;;;10.43;;
42066;SDS011;27734;47.028;28.820;2023-09-12T06:26:58;31.35;;;10.15;;
42066;SDS011;27734;47.028;28.820;2023-09-12T06:29:27;27.00;;;9.87;;
42066;SDS011;27734;47.028;28.820;2023-09-12T06:32:04;24.50;;;9.43;;
42066;SDS011;27734;47.028;28.820;2023-09-12T06:34:38;32.50;;;10.20;;
42066;SDS011;27734;47.028;28.820;2023-09-12T06:37:08;25.13;;;10.03;;
42066;SDS011;27734;47.028;28.820;2023-09-12T06:39:38;32.50;;;10.40;;
42066;SDS011;27734;47.028;28.820;2023-09-12T06:42:29;26.90;;;10.63;;
42066;SDS011;27734;47.028;28.820;2023-09-12T06:45:07;26.07;;;10.83;;
42066;SDS011;27734;47.028;28.820;2023-09-12T06:47:46;24.93;;;9.73;;
42066;SDS011;27734;47.028;28.820;2023-09-12T06:50:15;23.90;;;10.63;;
42066;SDS011;27734;47.028;28.820;2023-09-12T06:55:47;27.33;;;10.67;;
42066;SDS011;27734;47.028;28.820;2023-09-12T06:58:47;33.83;;;9.57;;
42066;SDS011;27734;47.028;28.820;2023-09-12T07:01:25;28.03;;;10.10;;
42066;SDS011;27734;47.028;28.820;2023-09-12T07:04:07;29.27;;;9.90;;
42066;SDS011;27734;47.028;28.820;2023-09-12T07:06:54;26.33;;;10.00;;
42066;SDS011;27734;47.028;28.820;2023-09-12T07:09:39;26.17;;;9.40;;
42066;SDS011;27734;47.028;28.820;2023-09-12T07:12:20;35.78;;;10.43;;
42066;SDS011;27734;47.028;28.820;2023-09-12T07:15:01;23.20;;;9.50;;
42066;SDS011;27734;47.028;28.820;2023-09-12T07:18:14;21.90;;;7.25;;
42066;SDS011;27734;47.028;28.820;2023-09-12T07:21:00;16.90;;;7.33;;
42066;SDS011;27734;47.028;28.820;2023-09-12T07:23:52;19.83;;;6.60;;
42066;SDS011;27734;47.028;28.820;2023-09-12T07:26:46;22.17;;;6.53;;
42066;SDS011;27734;47.028;28.820;2023-09-12T07:29:21;15.87;;;6.33;;
42066;SDS011;27734;47.028;28.820;2023-09-12T07:35:21;14.20;;;5.73;;
42066;SDS011;27734;47.028;28.820;2023-09-12T07:37:58;13.77;;;5.23;;
42066;SDS011;27734;47.028;28.820;2023-09-12T07:40:37;10.77;;;4.73;;
42066;SDS011;27734;47.028;28.820;2023-09-12T07:43:08;14.20;;;5.30;;
42066;SDS011;27734;47.028;28.820;2023-09-12T07:45:47;12.63;;;5.23;;
42066;SDS011;27734;47.028;28.820;2023-09-12T07:48:17;11.63;;;4.83;;
42066;SDS011;27734;47.028;28.820;2023-09-12T07:50:47;11.65;;;4.80;;
42066;SDS011;27734;47.028;28.820;2023-09-12T07:59:11;14.40;;;5.55;;
42066;SDS011;27734;47.028;28.820;2023-09-12T08:01:43;12.33;;;4.63;;
42066;SDS011;27734;47.028;28.820;2023-09-12T08:04:12;11.43;;;4.50;;
42066;SDS011;27734;47.028;28.820;2023-09-12T08:06:47;11.00;;;4.33;;
42066;SDS011;27734;47.028;28.820;2023-09-12T08:09:46;8.43;;;4.20;;
42066;SDS011;27734;47.028;28.820;2023-09-12T08:12:22;10.35;;;4.37;;
42066;SDS011;27734;47.028;28.820;2023-09-12T08:14:54;12.55;;;4.60;;
42066;SDS011;27734;47.028;28.820;2023-09-12T08:17:29;12.17;;;4.50;;
42066;SDS011;27734;47.028;28.820;2023-09-12T08:20:12;11.60;;;4.50;;
42066;SDS011;27734;47.028;28.820;2023-09-12T08:22:44;11.37;;;4.50;;
42066;SDS011;27734;47.028;28.820;2023-09-12T08:25:18;11.30;;;4.93;;
42066;SDS011;27734;47.028;28.820;2023-09-12T08:27:48;10.67;;;4.90;;
42066;SDS011;27734;47.028;28.820;2023-09-12T08:30:18;11.73;;;4.30;;
42066;SDS011;27734;47.028;28.820;2023-09-12T08:32:47;13.87;;;4.77;;
42066;SDS011;27734;47.028;28.820;2023-09-12T08:35:19;10.07;;;4.40;;
42066;SDS011;27734;47.028;28.820;2023-09-12T08:38:02;14.87;;;4.90;;
42066;SDS011;27734;47.028;28.820;2023-09-12T08:40:33;9.50;;;4.60;;
42066;SDS011;27734;47.028;28.820;2023-09-12T08:43:02;10.90;;;4.23;;
42066;SDS011;27734;47.028;28.820;2023-09-12T08:45:36;14.67;;;4.60;;
42066;SDS011;27734;47.028;28.820;2023-09-12T08:48:28;14.23;;;4.43;;
42066;SDS011;27734;47.028;28.820;2023-09-12T08:51:00;12.30;;;4.85;;
42066;SDS011;27734;47.028;28.820;2023-09-12T08:53:34;8.30;;;4.30;;
42066;SDS011;27734;47.028;28.820;2023-09-12T08:56:15;9.13;;;4.67;;
42066;SDS011;27734;47.028;28.820;2023-09-12T08:58:45;8.87;;;3.83;;
42066;SDS011;27734;47.028;28.820;2023-09-12T09:01:15;7.63;;;3.90;;
42066;SDS011;27734;47.028;28.820;2023-09-12T09:03:45;7.15;;;3.80;;
42066;SDS011;27734;47.028;28.820;2023-09-12T09:06:15;12.03;;;4.00;;
42066;SDS011;27734;47.028;28.820;2023-09-12T09:08:46;8.13;;;4.00;;
42066;SDS011;27734;47.028;28.820;2023-09-12T09:11:23;6.73;;;3.40;;
42066;SDS011;27734;47.028;28.820;2023-09-12T09:13:55;8.63;;;3.57;;
42066;SDS011;27734;47.028;28.820;2023-09-12T09:16:33;9.47;;;3.90;;
42066;SDS011;27734;47.028;28.820;2023-09-12T09:19:15;7.13;;;3.33;;
42066;SDS011;27734;47.028;28.820;2023-09-12T09:22:04;7.60;;;3.20;;
42066;SDS011;27734;47.028;28.820;2023-09-12T09:24:39;9.10;;;3.30;;
42066;SDS011;27734;47.028;28.820;2023-09-12T09:27:26;5.20;;;3.30;;
42066;SDS011;27734;47.028;28.820;2023-09-12T09:30:14;7.83;;;3.00;;
42066;SDS011;27734;47.028;28.820;2023-09-12T09:32:49;10.50;;;3.57;;
42066;SDS011;27734;47.028;28.820;2023-09-12T09:35:23;5.87;;;3.37;;
42066;SDS011;27734;47.028;28.820;2023-09-12T09:37:53;9.20;;;3.13;;
42066;SDS011;27734;47.028;28.820;2023-09-12T09:40:34;4.27;;;2.83;;
42066;SDS011;27734;47.028;28.820;2023-09-12T09:43:09;7.93;;;3.07;;
42066;SDS011;27734;47.028;28.820;2023-09-12T09:45:43;8.63;;;3.33;;
42066;SDS011;27734;47.028;28.820;2023-09-12T09:48:19;7.57;;;3.27;;
42066;SDS011;27734;47.028;28.820;2023-09-12T09:50:59;8.70;;;3.37;;
42066;SDS011;27734;47.028;28.820;2023-09-12T09:53:31;4.90;;;2.90;;
42066;SDS011;27734;47.028;28.820;2023-09-12T09:56:26;7.43;;;3.23;;
42066;SDS011;27734;47.028;28.820;2023-09-12T09:58:58;5.00;;;3.07;;
42066;SDS011;27734;47.028;28.820;2023-09-12T10:01:28;11.00;;;3.20;;
42066;SDS011;27734;47.028;28.820;2023-09-12T10:04:15;8.15;;;3.45;;
42066;SDS011;27734;47.028;28.820;2023-09-12T10:06:51;6.67;;;3.40;;
42066;SDS011;27734;47.028;28.820;2023-09-12T10:09:23;7.77;;;3.20;;
42066;SDS011;27734;47.028;28.820;2023-09-12T10:11:55;10.73;;;3.50;;
42066;SDS011;27734;47.028;28.820;2023-09-12T10:14:26;6.47;;;3.10;;
42066;SDS011;27734;47.028;28.820;2023-09-12T10:17:05;7.50;;;3.33;;
42066;SDS011;27734;47.028;28.820;2023-09-12T10:19:37;6.40;;;3.20;;
42066;SDS011;27734;47.028;28.820;2023-09-12T10:22:15;6.17;;;3.30;;
42066;SDS011;27734;47.028;28.820;2023-09-12T10:24:49;4.03;;;2.53;;
42066;SDS011;27734;47.028;28.820;2023-09-12T10:27:25;5.40;;;3.07;;
42066;SDS011;27734;47.028;28.820;2023-09-12T10:29:57;3.60;;;2.80;;
42066;SDS011;27734;47.028;28.820;2023-09-12T10:32:30;5.43;;;3.23;;
42066;SDS011;27734;47.028;28.820;2023-09-12T10:35:02;6.77;;;3.30;;
42066;SDS011;27734;47.028;28.820;2023-09-12T10:37:38;5.90;;;3.27;;
42066;SDS011;27734;47.028;28.820;2023-09-12T10:40:11;6.13;;;2.87;;
42066;SDS011;27734;47.028;28.820;2023-09-12T10:42:45;9.55;;;3.30;;
42066;SDS011;27734;47.028;28.820;2023-09-12T10:50:56;7.40;;;3.00;;
42066;SDS011;27734;47.028;28.820;2023-09-12T10:54:05;13.30;;;3.50;;
42066;SDS011;27734;47.028;28.820;2023-09-12T10:56:43;10.23;;;3.53;;
42066;SDS011;27734;47.028;28.820;2023-09-12T10:59:29;9.77;;;3.27;;
42066;SDS011;27734;47.028;28.820;2023-09-12T11:05:00;8.40;;;3.27;;
42066;SDS011;27734;47.028;28.820;2023-09-12T11:07:32;7.40;;;3.15;;
42066;SDS011;27734;47.028;28.820;2023-09-12T11:10:22;6.97;;;3.30;;
42066;SDS011;27734;47.028;28.820;2023-09-12T11:12:56;5.75;;;3.27;;
42066;SDS011;27734;47.028;28.820;2023-09-12T11:15:31;8.30;;;3.30;;
42066;SDS011;27734;47.028;28.820;2023-09-12T11:20:52;11.37;;;3.47;;
42066;SDS011;27734;47.028;28.820;2023-09-12T11:23:37;8.10;;;3.03;;
42066;SDS011;27734;47.028;28.820;2023-09-12T11:26:30;8.63;;;3.60;;
42066;SDS011;27734;47.028;28.820;2023-09-12T11:29:20;9.00;;;3.30;;
42066;SDS011;27734;47.028;28.820;2023-09-12T11:35:16;5.43;;;3.10;;
42066;SDS011;27734;47.028;28.820;2023-09-12T11:38:09;9.63;;;3.00;;
42066;SDS011;27734;47.028;28.820;2023-09-12T11:41:09;7.13;;;3.63;;
42066;SDS011;27734;47.028;28.820;2023-09-12T11:43:47;8.30;;;3.30;;
42066;SDS011;27734;47.028;28.820;2023-09-12T11:46:25;5.70;;;2.87;;
42066;SDS011;27734;47.028;28.820;2023-09-12T11:48:56;11.23;;;3.23;;
42066;SDS011;27734;47.028;28.820;2023-09-12T11:51:43;8.03;;;3.40;;
42066;SDS011;27734;47.028;28.820;2023-09-12T11:54:25;8.20;;;3.40;;
42066;SDS011;27734;47.028;28.820;2023-09-12T11:56:58;8.47;;;3.20;;
42066;SDS011;27734;47.028;28.820;2023-09-12T11:59:36;9.10;;;3.30;;
42066;SDS011;27734;47.028;28.820;2023-09-12T12:02:13;8.43;;;3.30;;
42066;SDS011;27734;47.028;28.820;2023-09-12T12:04:54;7.73;;;3.10;;
42066;SDS011;27734;47.028;28.820;2023-09-12T12:07:24;4.30;;;2.80;;
42066;SDS011;27734;47.028;28.820;2023-09-12T12:10:08;4.45;;;2.83;;
42066;SDS011;27734;47.028;28.820;2023-09-12T12:12:58;6.53;;;3.07;;
42066;SDS011;27734;47.028;28.820;2023-09-12T12:15:30;8.23;;;3.00;;
42066;SDS011;27734;47.028;28.820;2023-09-12T12:18:07;8.67;;;3.17;;
42066;SDS011;27734;47.028;28.820;2023-09-12T12:20:38;5.87;;;2.90;;
42066;SDS011;27734;47.028;28.820;2023-09-12T12:23:07;5.10;;;2.77;;
42066;SDS011;27734;47.028;28.820;2023-09-12T12:25:46;13.30;;;3.20;;
42066;SDS011;27734;47.028;28.820;2023-09-12T12:28:21;8.17;;;3.10;;
42066;SDS011;27734;47.028;28.820;2023-09-12T12:30:52;9.03;;;3.00;;
42066;SDS011;27734;47.028;28.820;2023-09-12T12:33:22;10.80;;;3.00;;
42066;SDS011;27734;47.028;28.820;2023-09-12T12:36:10;5.43;;;3.10;;
42066;SDS011;27734;47.028;28.820;2023-09-12T12:38:40;8.03;;;2.97;;
42066;SDS011;27734;47.028;28.820;2023-09-12T12:41:15;6.27;;;3.10;;
42066;SDS011;27734;47.028;28.820;2023-09-12T12:43:45;6.37;;;2.97;;
42066;SDS011;27734;47.028;28.820;2023-09-12T12:46:21;6.40;;;2.90;;
42066;SDS011;27734;47.028;28.820;2023-09-12T12:49:00;5.57;;;2.97;;
42066;SDS011;27734;47.028;28.820;2023-09-12T12:51:39;5.20;;;3.10;;
42066;SDS011;27734;47.028;28.820;2023-09-12T12:54:22;4.65;;;3.02;;
42066;SDS011;27734;47.028;28.820;2023-09-12T12:56:51;4.70;;;2.90;;
42066;SDS011;27734;47.028;28.820;2023-09-12T12:59:21;4.50;;;2.80;;
42066;SDS011;27734;47.028;28.820;2023-09-12T13:01:50;5.30;;;2.73;;
42066;SDS011;27734;47.028;28.820;2023-09-12T13:04:19;6.17;;;2.90;;
42066;SDS011;27734;47.028;28.820;2023-09-12T13:06:48;10.10;;;3.00;;
42066;SDS011;27734;47.028;28.820;2023-09-12T13:09:26;6.37;;;3.07;;
42066;SDS011;27734;47.028;28.820;2023-09-12T13:12:03;4.60;;;2.73;;
42066;SDS011;27734;47.028;28.820;2023-09-12T13:14:39;7.27;;;3.00;;
42066;SDS011;27734;47.028;28.820;2023-09-12T13:17:11;7.53;;;2.90;;
42066;SDS011;27734;47.028;28.820;2023-09-12T13:19:46;6.00;;;2.80;;
42066;SDS011;27734;47.028;28.820;2023-09-12T13:22:17;4.47;;;2.60;;
42066;SDS011;27734;47.028;28.820;2023-09-12T13:24:46;8.43;;;3.03;;
42066;SDS011;27734;47.028;28.820;2023-09-12T13:27:16;8.13;;;2.80;;
42066;SDS011;27734;47.028;28.820;2023-09-12T13:29:57;6.07;;;2.97;;
42066;SDS011;27734;47.028;28.820;2023-09-12T13:32:32;8.57;;;3.43;;
42066;SDS011;27734;47.028;28.820;2023-09-12T13:35:02;7.60;;;2.93;;
42066;SDS011;27734;47.028;28.820;2023-09-12T13:37:35;6.70;;;3.10;;
42066;SDS011;27734;47.028;28.820;2023-09-12T13:40:08;8.23;;;3.20;;
42066;SDS011;27734;47.028;28.820;2023-09-12T13:42:40;5.40;;;3.13;;
42066;SDS011;27734;47.028;28.820;2023-09-12T13:45:10;7.53;;;3.37;;
42066;SDS011;27734;47.028;28.820;2023-09-12T13:47:42;8.40;;;3.20;;
42066;SDS011;27734;47.028;28.820;2023-09-12T13:50:12;6.73;;;3.20;;
42066;SDS011;27734;47.028;28.820;2023-09-12T13:52:44;5.50;;;2.90;;
42066;SDS011;27734;47.028;28.820;2023-09-12T13:55:15;11.17;;;3.20;;
42066;SDS011;27734;47.028;28.820;2023-09-12T14:01:40;6.90;;;3.17;;
42066;SDS011;27734;47.028;28.820;2023-09-12T14:04:11;4.50;;;3.13;;
42066;SDS011;27734;47.028;28.820;2023-09-12T14:06:56;7.60;;;3.10;;
42066;SDS011;27734;47.028;28.820;2023-09-12T14:09:27;6.67;;;3.17;;
42066;SDS011;27734;47.028;28.820;2023-09-12T14:12:06;7.03;;;3.00;;
42066;SDS011;27734;47.028;28.820;2023-09-12T14:14:40;7.85;;;4.00;;
42066;SDS011;27734;47.028;28.820;2023-09-12T14:17:09;10.00;;;3.37;;
42066;SDS011;27734;47.028;28.820;2023-09-12T14:19:39;6.50;;;3.20;;
42066;SDS011;27734;47.028;28.820;2023-09-12T14:22:08;8.33;;;3.70;;
42066;SDS011;27734;47.028;28.820;2023-09-12T14:24:37;8.00;;;3.43;;
42066;SDS011;27734;47.028;28.820;2023-09-12T14:27:07;6.90;;;3.20;;
42066;SDS011;27734;47.028;28.820;2023-09-12T14:29:37;9.87;;;3.23;;
42066;SDS011;27734;47.028;28.820;2023-09-12T14:32:12;6.57;;;3.00;;
42066;SDS011;27734;47.028;28.820;2023-09-12T14:34:50;5.63;;;3.33;;
42066;SDS011;27734;47.028;28.820;2023-09-12T14:37:22;8.27;;;3.23;;
42066;SDS011;27734;47.028;28.820;2023-09-12T14:39:56;5.13;;;3.27;;
42066;SDS011;27734;47.028;28.820;2023-09-12T14:42:24;12.37;;;3.33;;
42066;SDS011;27734;47.028;28.820;2023-09-12T14:44:55;8.30;;;3.60;;
42066;SDS011;27734;47.028;28.820;2023-09-12T14:47:27;9.77;;;3.20;;
42066;SDS011;27734;47.028;28.820;2023-09-12T14:49:57;7.10;;;3.05;;
42066;SDS011;27734;47.028;28.820;2023-09-12T14:52:26;8.10;;;3.03;;
42066;SDS011;27734;47.028;28.820;2023-09-12T14:54:56;8.37;;;2.93;;
42066;SDS011;27734;47.028;28.820;2023-09-12T14:57:28;7.77;;;3.40;;
42066;SDS011;27734;47.028;28.820;2023-09-12T14:59:56;7.37;;;3.33;;
42066;SDS011;27734;47.028;28.820;2023-09-12T15:02:27;5.87;;;2.97;;
42066;SDS011;27734;47.028;28.820;2023-09-12T15:04:58;9.98;;;3.35;;
42066;SDS011;27734;47.028;28.820;2023-09-12T15:07:27;4.67;;;2.73;;
42066;SDS011;27734;47.028;28.820;2023-09-12T15:09:57;8.10;;;3.10;;
42066;SDS011;27734;47.028;28.820;2023-09-12T15:12:25;7.73;;;3.30;;
42066;SDS011;27734;47.028;28.820;2023-09-12T15:15:14;4.53;;;3.00;;
42066;SDS011;27734;47.028;28.820;2023-09-12T15:23:24;9.03;;;3.30;;
42066;SDS011;27734;47.028;28.820;2023-09-12T15:25:53;6.73;;;3.57;;
42066;SDS011;27734;47.028;28.820;2023-09-12T15:28:22;6.70;;;3.33;;
42066;SDS011;27734;47.028;28.820;2023-09-12T15:30:50;7.97;;;3.53;;
42066;SDS011;27734;47.028;28.820;2023-09-12T15:33:21;7.23;;;3.27;;
42066;SDS011;27734;47.028;28.820;2023-09-12T15:35:49;8.37;;;3.07;;
42066;SDS011;27734;47.028;28.820;2023-09-12T15:38:18;5.50;;;3.13;;
42066;SDS011;27734;47.028;28.820;2023-09-12T15:40:46;7.50;;;3.17;;
42066;SDS011;27734;47.028;28.820;2023-09-12T15:43:15;8.37;;;3.40;;
42066;SDS011;27734;47.028;28.820;2023-09-12T15:45:44;7.73;;;3.30;;